sensor_id;sensor_type;location;lat;lon;timestamp;pressure;altitude;pressure_sealevel;temperature;humidity
10652;BME280;5374;42.742;23.266;2022-11-12T00:01:54;96803.88;;;9.65;100.00
10652;BME280;5374;42.742;23.266;2022-11-12T00:04:43;96809.41;;;9.64;100.00
10652;BME280;5374;42.742;23.266;2022-11-12T00:07:32;96770.72;;;9.43;100.00
10652;BME280;5374;42.742;23.266;2022-11-12T00:10:20;96807.34;;;9.66;100.00
10652;BME280;5374;42.742;23.266;2022-11-12T00:13:07;96799.81;;;9.56;100.00
10652;BME280;5374;42.742;23.266;2022-11-12T00:15:54;96793.31;;;9.52;100.00
10652;BME280;5374;42.742;23.266;2022-11-12T00:18:41;96795.78;;;9.47;100.00
10652;BME280;5374;42.742;23.266;2022-11-12T00:21:28;96802.31;;;9.44;100.00
10652;BME280;5374;42.742;23.266;2022-11-12T00:24:17;96761.63;;;9.19;100.00
10652;BME280;5374;42.742;23.266;2022-11-12T00:27:04;96809.25;;;9.39;100.00
10652;BME280;5374;42.742;23.266;2022-11-12T00:29:51;96818.66;;;9.35;100.00
10652;BME280;5374;42.742;23.266;2022-11-12T00:32:38;96820.72;;;9.26;100.00
10652;BME280;5374;42.742;23.266;2022-11-12T00:35:25;96811.56;;;9.22;100.00
10652;BME280;5374;42.742;23.266;2022-11-12T00:38:12;96809.72;;;9.22;100.00
10652;BME280;5374;42.742;23.266;2022-11-12T00:41:01;96807.06;;;9.22;100.00
10652;BME280;5374;42.742;23.266;2022-11-12T00:43:48;96796.88;;;9.13;100.00
10652;BME280;5374;42.742;23.266;2022-11-12T00:46:35;96813.59;;;9.20;100.00
10652;BME280;5374;42.742;23.266;2022-11-12T00:49:22;96798.09;;;9.17;100.00
10652;BME280;5374;42.742;23.266;2022-11-12T00:52:09;96799.13;;;9.16;100.00
10652;BME280;5374;42.742;23.266;2022-11-12T00:54:56;96792.81;;;9.17;100.00
10652;BME280;5374;42.742;23.266;2022-11-12T00:57:45;96784.06;;;8.97;100.00
10652;BME280;5374;42.742;23.266;2022-11-12T01:00:32;96784.06;;;8.83;100.00
10652;BME280;5374;42.742;23.266;2022-11-12T01:03:19;96770.63;;;8.91;100.00
10652;BME280;5374;42.742;23.266;2022-11-12T01:06:08;96777.16;;;8.96;100.00
10652;BME280;5374;42.742;23.266;2022-11-12T01:08:56;96791.81;;;8.98;100.00
10652;BME280;5374;42.742;23.266;2022-11-12T01:11:43;96783.25;;;9.03;100.00
10652;BME280;5374;42.742;23.266;2022-11-12T01:14:32;96775.09;;;8.91;100.00
10652;BME280;5374;42.742;23.266;2022-11-12T01:17:19;96786.91;;;9.15;100.00
10652;BME280;5374;42.742;23.266;2022-11-12T01:20:07;96745.38;;;8.89;100.00
10652;BME280;5374;42.742;23.266;2022-11-12T01:22:54;96778.94;;;9.15;100.00
10652;BME280;5374;42.742;23.266;2022-11-12T01:25:41;96780.38;;;9.17;100.00
10652;BME280;5374;42.742;23.266;2022-11-12T01:28:28;96794.22;;;9.19;100.00
10652;BME280;5374;42.742;23.266;2022-11-12T01:31:19;96768.97;;;9.10;100.00
10652;BME280;5374;42.742;23.266;2022-11-12T01:34:08;96782.56;;;9.27;100.00
10652;BME280;5374;42.742;23.266;2022-11-12T01:36:55;96778.09;;;9.27;100.00
10652;BME280;5374;42.742;23.266;2022-11-12T01:39:42;96752.63;;;9.20;100.00
10652;BME280;5374;42.742;23.266;2022-11-12T01:42:31;96737.16;;;9.17;100.00
10652;BME280;5374;42.742;23.266;2022-11-12T01:45:19;96761.16;;;9.35;100.00
10652;BME280;5374;42.742;23.266;2022-11-12T01:48:11;96764.81;;;9.34;100.00
10652;BME280;5374;42.742;23.266;2022-11-12T01:51:06;96757.88;;;9.33;100.00
10652;BME280;5374;42.742;23.266;2022-11-12T01:53:56;96721.25;;;9.10;100.00
10652;BME280;5374;42.742;23.266;2022-11-12T01:56:45;96733.88;;;9.15;100.00
10652;BME280;5374;42.742;23.266;2022-11-12T01:59:37;96759.91;;;9.38;100.00
10652;BME280;5374;42.742;23.266;2022-11-12T02:02:27;96756.03;;;9.40;100.00
10652;BME280;5374;42.742;23.266;2022-11-12T02:05:16;96754.00;;;9.42;100.00
10652;BME280;5374;42.742;23.266;2022-11-12T02:08:05;96759.72;;;9.39;100.00
10652;BME280;5374;42.742;23.266;2022-11-12T02:10:55;96756.03;;;9.40;100.00
10652;BME280;5374;42.742;23.266;2022-11-12T02:13:43;96754.19;;;9.41;100.00
10652;BME280;5374;42.742;23.266;2022-11-12T02:16:44;96750.13;;;9.38;100.00
10652;BME280;5374;42.742;23.266;2022-11-12T02:19:35;96760.53;;;9.40;100.00
10652;BME280;5374;42.742;23.266;2022-11-12T02:22:24;96763.78;;;9.48;100.00
10652;BME280;5374;42.742;23.266;2022-11-12T02:25:15;96762.72;;;9.49;100.00
10652;BME280;5374;42.742;23.266;2022-11-12T02:28:05;96769.44;;;9.52;100.00
10652;BME280;5374;42.742;23.266;2022-11-12T02:30:53;96764.53;;;9.55;100.00
10652;BME280;5374;42.742;23.266;2022-11-12T02:33:40;96756.97;;;9.59;100.00
10652;BME280;5374;42.742;23.266;2022-11-12T02:36:28;96753.94;;;9.55;100.00
10652;BME280;5374;42.742;23.266;2022-11-12T02:39:17;96748.63;;;9.55;100.00
10652;BME280;5374;42.742;23.266;2022-11-12T02:42:04;96746.78;;;9.56;100.00
10652;BME280;5374;42.742;23.266;2022-11-12T02:44:52;96730.94;;;9.43;100.00
10652;BME280;5374;42.742;23.266;2022-11-12T02:47:39;96747.81;;;9.55;100.00
10652;BME280;5374;42.742;23.266;2022-11-12T02:50:27;96732.38;;;9.45;100.00
10652;BME280;5374;42.742;23.266;2022-11-12T02:53:14;96753.31;;;9.53;100.00
10652;BME280;5374;42.742;23.266;2022-11-12T02:56:02;96735.25;;;9.37;100.00
10652;BME280;5374;42.742;23.266;2022-11-12T02:58:50;96762.09;;;9.54;100.00
10652;BME280;5374;42.742;23.266;2022-11-12T03:01:37;96764.75;;;9.54;100.00
10652;BME280;5374;42.742;23.266;2022-11-12T03:04:24;96745.03;;;9.43;100.00
10652;BME280;5374;42.742;23.266;2022-11-12T03:07:12;96757.00;;;9.52;100.00
10652;BME280;5374;42.742;23.266;2022-11-12T03:09:59;96752.72;;;9.51;100.00
10652;BME280;5374;42.742;23.266;2022-11-12T03:12:47;96760.25;;;9.54;100.00
10652;BME280;5374;42.742;23.266;2022-11-12T03:15:34;96766.56;;;9.53;100.00
10652;BME280;5374;42.742;23.266;2022-11-12T03:18:21;96709.03;;;9.16;100.00
10652;BME280;5374;42.742;23.266;2022-11-12T03:21:09;96760.88;;;9.50;100.00
10652;BME280;5374;42.742;23.266;2022-11-12T03:23:56;96750.53;;;9.35;100.00
10652;BME280;5374;42.742;23.266;2022-11-12T03:26:43;96752.56;;;9.40;100.00
10652;BME280;5374;42.742;23.266;2022-11-12T03:29:31;96753.38;;;9.40;100.00
10652;BME280;5374;42.742;23.266;2022-11-12T03:32:18;96756.25;;;9.32;100.00
10652;BME280;5374;42.742;23.266;2022-11-12T03:35:06;96768.13;;;9.23;100.00
10652;BME280;5374;42.742;23.266;2022-11-12T03:37:53;96760.59;;;9.20;100.00
10652;BME280;5374;42.742;23.266;2022-11-12T03:40:41;96763.66;;;9.17;100.00
10652;BME280;5374;42.742;23.266;2022-11-12T03:43:28;96766.09;;;9.12;100.00
10652;BME280;5374;42.742;23.266;2022-11-12T03:46:16;96768.16;;;9.10;100.00
10652;BME280;5374;42.742;23.266;2022-11-12T03:49:03;96771.81;;;9.09;100.00
10652;BME280;5374;42.742;23.266;2022-11-12T03:51:51;96767.53;;;9.08;100.00
10652;BME280;5374;42.742;23.266;2022-11-12T03:54:38;96764.06;;;9.07;100.00
10652;BME280;5374;42.742;23.266;2022-11-12T03:57:25;96773.47;;;8.97;100.00
10652;BME280;5374;42.742;23.266;2022-11-12T04:00:12;96766.56;;;8.96;100.00
10652;BME280;5374;42.742;23.266;2022-11-12T04:03:01;96765.31;;;8.85;100.00
10652;BME280;5374;42.742;23.266;2022-11-12T04:05:48;96770.22;;;8.81;100.00
10652;BME280;5374;42.742;23.266;2022-11-12T04:08:52;96762.09;;;8.76;100.00
10652;BME280;5374;42.742;23.266;2022-11-12T04:11:39;96739.28;;;8.62;100.00
10652;BME280;5374;42.742;23.266;2022-11-12T04:14:26;96762.28;;;8.68;100.00
10652;BME280;5374;42.742;23.266;2022-11-12T04:17:14;96758.84;;;8.61;100.00
10652;BME280;5374;42.742;23.266;2022-11-12T04:20:19;96752.91;;;8.59;100.00
10652;BME280;5374;42.742;23.266;2022-11-12T04:23:24;96715.22;;;8.04;100.00
10652;BME280;5374;42.742;23.266;2022-11-12T04:26:11;96759.25;;;8.45;100.00
10652;BME280;5374;42.742;23.266;2022-11-12T04:29:09;96756.38;;;8.40;100.00
10652;BME280;5374;42.742;23.266;2022-11-12T04:32:14;96679.81;;;7.92;100.00
10652;BME280;5374;42.742;23.266;2022-11-12T04:35:02;96750.69;;;8.36;100.00
10652;BME280;5374;42.742;23.266;2022-11-12T04:37:51;96752.69;;;8.28;100.00
10652;BME280;5374;42.742;23.266;2022-11-12T04:40:38;96752.91;;;8.26;100.00
10652;BME280;5374;42.742;23.266;2022-11-12T04:43:43;96759.81;;;8.27;100.00
10652;BME280;5374;42.742;23.266;2022-11-12T04:46:47;96759.22;;;8.25;100.00
10652;BME280;5374;42.742;23.266;2022-11-12T04:49:34;96682.84;;;7.76;100.00
10652;BME280;5374;42.742;23.266;2022-11-12T04:52:21;96742.53;;;8.11;100.00
10652;BME280;5374;42.742;23.266;2022-11-12T04:55:10;96705.03;;;7.88;100.00
10652;BME280;5374;42.742;23.266;2022-11-12T04:57:58;96755.94;;;8.16;100.00
10652;BME280;5374;42.742;23.266;2022-11-12T05:00:45;96756.53;;;8.05;100.00
10652;BME280;5374;42.742;23.266;2022-11-12T05:03:32;96756.13;;;8.15;100.00
10652;BME280;5374;42.742;23.266;2022-11-12T05:06:19;96756.34;;;8.20;99.25
10652;BME280;5374;42.742;23.266;2022-11-12T05:09:35;96762.06;;;8.23;98.58
10652;BME280;5374;42.742;23.266;2022-11-12T05:12:24;96748.59;;;8.18;97.33
10652;BME280;5374;42.742;23.266;2022-11-12T05:15:11;96774.06;;;8.26;99.67
10652;BME280;5374;42.742;23.266;2022-11-12T05:17:58;96778.75;;;8.31;100.00
10652;BME280;5374;42.742;23.266;2022-11-12T05:20:45;96734.97;;;8.02;100.00
10652;BME280;5374;42.742;23.266;2022-11-12T05:23:36;96730.06;;;7.99;100.00
10652;BME280;5374;42.742;23.266;2022-11-12T05:26:23;96730.06;;;7.99;100.00
10652;BME280;5374;42.742;23.266;2022-11-12T05:29:12;96776.91;;;8.18;100.00
10652;BME280;5374;42.742;23.266;2022-11-12T05:31:59;96784.47;;;8.28;100.00
10652;BME280;5374;42.742;23.266;2022-11-12T05:34:46;96743.09;;;8.00;100.00
10652;BME280;5374;42.742;23.266;2022-11-12T05:37:33;96772.44;;;8.25;100.00
10652;BME280;5374;42.742;23.266;2022-11-12T05:40:20;96791.81;;;8.32;100.00
10652;BME280;5374;42.742;23.266;2022-11-12T05:43:07;96738.63;;;8.01;100.00
10652;BME280;5374;42.742;23.266;2022-11-12T05:45:56;96740.44;;;8.00;100.00
10652;BME280;5374;42.742;23.266;2022-11-12T05:48:43;96799.13;;;8.37;100.00
10652;BME280;5374;42.742;23.266;2022-11-12T05:51:30;96785.28;;;8.28;100.00
10652;BME280;5374;42.742;23.266;2022-11-12T05:54:18;96749.84;;;8.09;100.00
10652;BME280;5374;42.742;23.266;2022-11-12T05:57:05;96805.66;;;8.41;100.00
10652;BME280;5374;42.742;23.266;2022-11-12T05:59:52;96734.31;;;7.93;100.00
10652;BME280;5374;42.742;23.266;2022-11-12T06:02:40;96755.94;;;8.03;100.00
10652;BME280;5374;42.742;23.266;2022-11-12T06:05:27;96746.91;;;7.78;100.00
10652;BME280;5374;42.742;23.266;2022-11-12T06:08:14;96800.56;;;8.39;100.00
10652;BME280;5374;42.742;23.266;2022-11-12T06:11:02;96800.41;;;8.54;100.00
10652;BME280;5374;42.742;23.266;2022-11-12T06:13:49;96816.50;;;8.72;100.00
10652;BME280;5374;42.742;23.266;2022-11-12T06:16:36;96786.13;;;8.68;100.00
10652;BME280;5374;42.742;23.266;2022-11-12T06:19:24;96824.19;;;9.20;96.11
10652;BME280;5374;42.742;23.266;2022-11-12T06:22:11;96822.16;;;9.86;88.45
10652;BME280;5374;42.742;23.266;2022-11-12T06:24:58;96812.06;;;10.71;81.08
10652;BME280;5374;42.742;23.266;2022-11-12T06:27:46;96791.53;;;11.64;71.71
10652;BME280;5374;42.742;23.266;2022-11-12T06:30:33;96798.53;;;12.67;65.88
10652;BME280;5374;42.742;23.266;2022-11-12T06:33:20;96796.34;;;14.09;60.62
10652;BME280;5374;42.742;23.266;2022-11-12T06:36:11;96805.22;;;15.55;55.83
10652;BME280;5374;42.742;23.266;2022-11-12T06:38:58;96801.34;;;16.87;50.82
10652;BME280;5374;42.742;23.266;2022-11-12T06:41:45;96830.25;;;16.80;50.61
10652;BME280;5374;42.742;23.266;2022-11-12T06:44:33;96834.91;;;15.70;52.60
10652;BME280;5374;42.742;23.266;2022-11-12T06:47:20;96827.41;;;14.67;54.43
10652;BME280;5374;42.742;23.266;2022-11-12T06:50:07;96823.84;;;13.81;55.69
10652;BME280;5374;42.742;23.266;2022-11-12T06:52:58;96830.66;;;12.72;59.55
10652;BME280;5374;42.742;23.266;2022-11-12T06:55:45;96838.59;;;12.49;59.42
10652;BME280;5374;42.742;23.266;2022-11-12T06:58:33;96836.06;;;12.54;59.48
10652;BME280;5374;42.742;23.266;2022-11-12T07:01:20;96829.91;;;12.23;60.78
10652;BME280;5374;42.742;23.266;2022-11-12T07:04:08;96810.31;;;11.88;61.48
10652;BME280;5374;42.742;23.266;2022-11-12T07:06:55;96809.78;;;11.61;62.26
10652;BME280;5374;42.742;23.266;2022-11-12T07:09:44;96799.94;;;11.61;63.00
10652;BME280;5374;42.742;23.266;2022-11-12T07:12:31;96822.56;;;11.52;63.56
10652;BME280;5374;42.742;23.266;2022-11-12T07:15:18;96828.16;;;11.26;64.25
10652;BME280;5374;42.742;23.266;2022-11-12T07:18:06;96821.44;;;11.23;65.67
10652;BME280;5374;42.742;23.266;2022-11-12T07:20:56;96826.38;;;11.20;66.05
10652;BME280;5374;42.742;23.266;2022-11-12T07:23:44;96825.84;;;11.11;65.34
10652;BME280;5374;42.742;23.266;2022-11-12T07:26:33;96828.09;;;11.08;66.02
10652;BME280;5374;42.742;23.266;2022-11-12T07:29:21;96834.31;;;11.26;65.43
10652;BME280;5374;42.742;23.266;2022-11-12T07:32:08;96826.84;;;11.35;64.82
10652;BME280;5374;42.742;23.266;2022-11-12T07:34:55;96834.22;;;11.33;64.33
10652;BME280;5374;42.742;23.266;2022-11-12T07:37:42;96824.81;;;11.30;63.80
10652;BME280;5374;42.742;23.266;2022-11-12T07:40:29;96782.78;;;11.03;63.42
10652;BME280;5374;42.742;23.266;2022-11-12T07:43:18;96805.09;;;11.02;64.46
10652;BME280;5374;42.742;23.266;2022-11-12T07:46:07;96791.94;;;11.07;64.06
10652;BME280;5374;42.742;23.266;2022-11-12T07:48:54;96808.03;;;11.12;64.54
10652;BME280;5374;42.742;23.266;2022-11-12T07:51:42;96828.44;;;11.18;64.98
10652;BME280;5374;42.742;23.266;2022-11-12T07:54:29;96818.66;;;11.12;65.24
10652;BME280;5374;42.742;23.266;2022-11-12T07:57:16;96828.78;;;11.03;65.40
10652;BME280;5374;42.742;23.266;2022-11-12T08:00:06;96823.19;;;10.86;64.94
10652;BME280;5374;42.742;23.266;2022-11-12T08:02:53;96805.63;;;10.60;65.14
10652;BME280;5374;42.742;23.266;2022-11-12T08:05:41;96803.84;;;10.54;66.07
10652;BME280;5374;42.742;23.266;2022-11-12T08:08:28;96848.25;;;10.72;66.47
10652;BME280;5374;42.742;23.266;2022-11-12T08:11:15;96829.28;;;10.62;66.83
10652;BME280;5374;42.742;23.266;2022-11-12T08:14:02;96841.66;;;10.81;66.39
10652;BME280;5374;42.742;23.266;2022-11-12T08:16:51;96837.97;;;10.82;65.25
10652;BME280;5374;42.742;23.266;2022-11-12T08:19:38;96769.03;;;10.38;64.93
10652;BME280;5374;42.742;23.266;2022-11-12T08:22:25;96826.50;;;10.82;64.34
10652;BME280;5374;42.742;23.266;2022-11-12T08:25:12;96841.06;;;11.04;63.97
10652;BME280;5374;42.742;23.266;2022-11-12T08:28:00;96845.47;;;11.10;63.65
10652;BME280;5374;42.742;23.266;2022-11-12T08:30:47;96842.75;;;11.17;63.91
10652;BME280;5374;42.742;23.266;2022-11-12T08:33:35;96841.47;;;11.26;63.93
10652;BME280;5374;42.742;23.266;2022-11-12T08:36:23;96843.97;;;11.39;63.44
10652;BME280;5374;42.742;23.266;2022-11-12T08:39:10;96857.72;;;11.36;62.58
10652;BME280;5374;42.742;23.266;2022-11-12T08:41:57;96848.66;;;11.44;62.41
10652;BME280;5374;42.742;23.266;2022-11-12T08:44:44;96849.31;;;11.39;62.74
10652;BME280;5374;42.742;23.266;2022-11-12T08:47:31;96839.53;;;11.33;61.81
10652;BME280;5374;42.742;23.266;2022-11-12T08:50:19;96827.84;;;11.16;61.41
10652;BME280;5374;42.742;23.266;2022-11-12T08:53:08;96850.50;;;11.43;61.71
10652;BME280;5374;42.742;23.266;2022-11-12T08:55:56;96847.03;;;11.61;62.40
10652;BME280;5374;42.742;23.266;2022-11-12T08:58:44;96855.81;;;11.61;60.75
10652;BME280;5374;42.742;23.266;2022-11-12T09:01:31;96854.19;;;11.60;60.34
10652;BME280;5374;42.742;23.266;2022-11-12T09:04:18;96849.09;;;11.59;60.58
10652;BME280;5374;42.742;23.266;2022-11-12T09:07:11;96818.53;;;11.50;61.12
10652;BME280;5374;42.742;23.266;2022-11-12T09:09:59;96836.84;;;11.76;60.42
10652;BME280;5374;42.742;23.266;2022-11-12T09:12:49;96823.75;;;11.56;59.54
10652;BME280;5374;42.742;23.266;2022-11-12T09:15:39;96842.84;;;11.72;59.43
10652;BME280;5374;42.742;23.266;2022-11-12T09:18:26;96831.00;;;11.68;60.21
10652;BME280;5374;42.742;23.266;2022-11-12T09:21:13;96822.13;;;11.55;59.52
10652;BME280;5374;42.742;23.266;2022-11-12T09:24:13;96844.75;;;11.46;59.63
10652;BME280;5374;42.742;23.266;2022-11-12T09:27:01;96838.44;;;11.41;60.52
10652;BME280;5374;42.742;23.266;2022-11-12T09:29:48;96841.09;;;11.41;60.55
10652;BME280;5374;42.742;23.266;2022-11-12T09:32:35;96845.00;;;11.38;61.24
10652;BME280;5374;42.742;23.266;2022-11-12T09:35:22;96854.16;;;11.24;61.89
10652;BME280;5374;42.742;23.266;2022-11-12T09:38:10;96840.53;;;11.14;61.95
10652;BME280;5374;42.742;23.266;2022-11-12T09:41:08;96805.13;;;10.95;62.44
10652;BME280;5374;42.742;23.266;2022-11-12T09:44:00;96836.25;;;11.13;62.96
10652;BME280;5374;42.742;23.266;2022-11-12T09:46:51;96823.34;;;11.16;62.96
10652;BME280;5374;42.742;23.266;2022-11-12T09:49:46;96855.63;;;11.20;62.51
10652;BME280;5374;42.742;23.266;2022-11-12T09:52:36;96849.44;;;11.26;61.71
10652;BME280;5374;42.742;23.266;2022-11-12T09:55:29;96853.56;;;11.22;62.06
10652;BME280;5374;42.742;23.266;2022-11-12T09:58:18;96840.13;;;11.35;61.72
10652;BME280;5374;42.742;23.266;2022-11-12T10:01:15;96843.41;;;11.55;61.12
10652;BME280;5374;42.742;23.266;2022-11-12T10:04:16;96827.63;;;11.79;60.47
10652;BME280;5374;42.742;23.266;2022-11-12T10:07:12;96839.88;;;11.98;60.45
10652;BME280;5374;42.742;23.266;2022-11-12T10:10:09;96841.28;;;12.01;59.85
10652;BME280;5374;42.742;23.266;2022-11-12T10:13:11;96834.66;;;11.91;60.56
10652;BME280;5374;42.742;23.266;2022-11-12T10:16:10;96844.91;;;11.88;61.08
10652;BME280;5374;42.742;23.266;2022-11-12T10:19:44;96836.97;;;11.63;61.30
10652;BME280;5374;42.742;23.266;2022-11-12T10:22:43;96847.25;;;11.41;62.59
10652;BME280;5374;42.742;23.266;2022-11-12T10:25:36;96840.88;;;11.42;63.05
10652;BME280;5374;42.742;23.266;2022-11-12T10:28:27;96841.47;;;11.44;62.78
10652;BME280;5374;42.742;23.266;2022-11-12T10:31:18;96837.03;;;11.38;63.50
10652;BME280;5374;42.742;23.266;2022-11-12T10:34:14;96838.66;;;11.39;63.50
10652;BME280;5374;42.742;23.266;2022-11-12T10:37:14;96839.53;;;11.33;64.00
10652;BME280;5374;42.742;23.266;2022-11-12T10:40:26;96850.91;;;11.22;64.79
10652;BME280;5374;42.742;23.266;2022-11-12T10:43:21;96829.75;;;11.09;65.66
10652;BME280;5374;42.742;23.266;2022-11-12T10:46:19;96846.63;;;11.21;66.46
10652;BME280;5374;42.742;23.266;2022-11-12T10:49:21;96843.03;;;11.09;67.12
10652;BME280;5374;42.742;23.266;2022-11-12T10:52:20;96832.53;;;10.95;66.68
10652;BME280;5374;42.742;23.266;2022-11-12T10:55:15;96840.66;;;11.01;66.61
10652;BME280;5374;42.742;23.266;2022-11-12T10:58:18;96838.47;;;10.91;67.48
10652;BME280;5374;42.742;23.266;2022-11-12T11:01:12;96759.44;;;10.37;67.27
10652;BME280;5374;42.742;23.266;2022-11-12T11:04:03;96838.06;;;10.94;67.30
10652;BME280;5374;42.742;23.266;2022-11-12T11:06:57;96825.41;;;10.89;67.56
10652;BME280;5374;42.742;23.266;2022-11-12T11:09:51;96839.63;;;11.02;66.15
10652;BME280;5374;42.742;23.266;2022-11-12T11:12:38;96835.06;;;11.09;66.31
10652;BME280;5374;42.742;23.266;2022-11-12T11:15:25;96826.22;;;11.15;66.47
10652;BME280;5374;42.742;23.266;2022-11-12T11:18:13;96831.97;;;11.12;65.70
10652;BME280;5374;42.742;23.266;2022-11-12T11:21:19;96837.72;;;11.09;66.16
10652;BME280;5374;42.742;23.266;2022-11-12T11:24:23;96825.31;;;11.03;66.09
10652;BME280;5374;42.742;23.266;2022-11-12T11:27:28;96822.06;;;11.01;66.48
10652;BME280;5374;42.742;23.266;2022-11-12T11:30:18;96808.72;;;10.82;66.79
10652;BME280;5374;42.742;23.266;2022-11-12T11:33:17;96817.19;;;10.98;67.30
10652;BME280;5374;42.742;23.266;2022-11-12T11:36:17;96823.94;;;10.93;66.78
10652;BME280;5374;42.742;23.266;2022-11-12T11:39:16;96810.56;;;10.82;67.19
10652;BME280;5374;42.742;23.266;2022-11-12T11:42:17;96808.22;;;10.67;68.27
10652;BME280;5374;42.742;23.266;2022-11-12T11:45:15;96810.28;;;10.65;68.26
10652;BME280;5374;42.742;23.266;2022-11-12T11:48:10;96832.47;;;10.77;68.79
10652;BME280;5374;42.742;23.266;2022-11-12T11:51:01;96839.66;;;10.70;69.19
10652;BME280;5374;42.742;23.266;2022-11-12T11:53:58;96833.94;;;10.73;69.05
10652;BME280;5374;42.742;23.266;2022-11-12T11:56:57;96793.03;;;10.49;69.56
10652;BME280;5374;42.742;23.266;2022-11-12T11:59:55;96831.06;;;10.75;69.10
10652;BME280;5374;42.742;23.266;2022-11-12T12:03:11;96831.66;;;10.77;69.35
10652;BME280;5374;42.742;23.266;2022-11-12T12:06:17;96833.06;;;10.79;68.75
10652;BME280;5374;42.742;23.266;2022-11-12T12:09:20;96836.59;;;10.73;68.74
10652;BME280;5374;42.742;23.266;2022-11-12T12:12:19;96822.09;;;10.69;68.11
10652;BME280;5374;42.742;23.266;2022-11-12T12:15:38;96827.81;;;10.73;67.84
10652;BME280;5374;42.742;23.266;2022-11-12T12:18:39;96827.34;;;10.82;67.25
10652;BME280;5374;42.742;23.266;2022-11-12T12:21:34;96819.50;;;10.87;67.13
10652;BME280;5374;42.742;23.266;2022-11-12T12:24:27;96825.53;;;11.01;66.36
10652;BME280;5374;42.742;23.266;2022-11-12T12:27:21;96803.75;;;11.11;65.29
10652;BME280;5374;42.742;23.266;2022-11-12T12:30:17;96804.19;;;11.08;65.70
10652;BME280;5374;42.742;23.266;2022-11-12T12:33:19;96809.41;;;11.21;64.27
10652;BME280;5374;42.742;23.266;2022-11-12T12:36:11;96816.78;;;11.19;64.56
10652;BME280;5374;42.742;23.266;2022-11-12T12:39:10;96811.84;;;11.22;64.95
10652;BME280;5374;42.742;23.266;2022-11-12T12:42:03;96814.59;;;11.09;64.63
10652;BME280;5374;42.742;23.266;2022-11-12T12:44:55;96805.53;;;11.17;64.69
10652;BME280;5374;42.742;23.266;2022-11-12T12:47:50;96813.22;;;11.07;65.42
10652;BME280;5374;42.742;23.266;2022-11-12T12:50:40;96814.16;;;11.12;65.27
10652;BME280;5374;42.742;23.266;2022-11-12T12:53:35;96799.63;;;11.15;65.25
10652;BME280;5374;42.742;23.266;2022-11-12T12:56:43;96806.72;;;11.21;65.21
10652;BME280;5374;42.742;23.266;2022-11-12T12:59:33;96812.53;;;11.11;64.91
10652;BME280;5374;42.742;23.266;2022-11-12T13:02:22;96798.88;;;11.08;65.46
10652;BME280;5374;42.742;23.266;2022-11-12T13:05:27;96811.50;;;11.12;66.23
10652;BME280;5374;42.742;23.266;2022-11-12T13:08:19;96821.75;;;11.09;66.98
10652;BME280;5374;42.742;23.266;2022-11-12T13:11:08;96829.75;;;11.09;67.79
10652;BME280;5374;42.742;23.266;2022-11-12T13:13:55;96809.19;;;10.98;68.66
10652;BME280;5374;42.742;23.266;2022-11-12T13:17:01;96825.59;;;10.94;69.87
10652;BME280;5374;42.742;23.266;2022-11-12T13:23:44;96812.47;;;10.75;72.52
10652;BME280;5374;42.742;23.266;2022-11-12T13:26:48;96831.00;;;10.81;72.88
10652;BME280;5374;42.742;23.266;2022-11-12T13:29:40;96826.13;;;10.78;74.02
10652;BME280;5374;42.742;23.266;2022-11-12T13:32:38;96830.06;;;10.69;73.70
10652;BME280;5374;42.742;23.266;2022-11-12T13:35:31;96829.63;;;10.72;73.63
10652;BME280;5374;42.742;23.266;2022-11-12T13:38:20;96826.56;;;10.75;73.46
10652;BME280;5374;42.742;23.266;2022-11-12T13:41:13;96811.59;;;10.56;74.33
10652;BME280;5374;42.742;23.266;2022-11-12T13:44:05;96835.66;;;10.61;75.03
10652;BME280;5374;42.742;23.266;2022-11-12T13:46:54;96821.78;;;10.59;76.64
10652;BME280;5374;42.742;23.266;2022-11-12T13:49:43;96823.41;;;10.60;77.65
10652;BME280;5374;42.742;23.266;2022-11-12T13:52:33;96816.91;;;10.56;77.58
10652;BME280;5374;42.742;23.266;2022-11-12T13:55:21;96817.50;;;10.58;78.30
10652;BME280;5374;42.742;23.266;2022-11-12T13:58:17;96821.59;;;10.54;78.55
10652;BME280;5374;42.742;23.266;2022-11-12T14:01:05;96816.91;;;10.56;78.71
10652;BME280;5374;42.742;23.266;2022-11-12T14:03:53;96820.59;;;10.55;78.65
10652;BME280;5374;42.742;23.266;2022-11-12T14:06:43;96824.66;;;10.57;79.28
10652;BME280;5374;42.742;23.266;2022-11-12T14:09:47;96817.28;;;10.59;80.08
10652;BME280;5374;42.742;23.266;2022-11-12T14:12:57;96822.53;;;10.66;78.65
10652;BME280;5374;42.742;23.266;2022-11-12T14:16:01;96822.91;;;10.70;77.87
10652;BME280;5374;42.742;23.266;2022-11-12T14:19:17;96819.66;;;10.68;78.51
10652;BME280;5374;42.742;23.266;2022-11-12T14:22:14;96820.84;;;10.72;78.33
10652;BME280;5374;42.742;23.266;2022-11-12T14:25:03;96818.25;;;10.65;78.09
10652;BME280;5374;42.742;23.266;2022-11-12T14:27:56;96822.59;;;10.59;78.45
10652;BME280;5374;42.742;23.266;2022-11-12T14:30:43;96805.47;;;10.55;76.84
10652;BME280;5374;42.742;23.266;2022-11-12T14:33:31;96823.56;;;10.65;76.97
10652;BME280;5374;42.742;23.266;2022-11-12T14:36:19;96815.59;;;10.65;76.43
10652;BME280;5374;42.742;23.266;2022-11-12T14:39:10;96822.38;;;10.61;77.10
10652;BME280;5374;42.742;23.266;2022-11-12T14:41:58;96830.81;;;10.51;78.04
10652;BME280;5374;42.742;23.266;2022-11-12T14:44:46;96819.97;;;10.53;78.32
10652;BME280;5374;42.742;23.266;2022-11-12T14:47:33;96814.66;;;10.53;78.09
10652;BME280;5374;42.742;23.266;2022-11-12T14:50:25;96817.34;;;10.46;79.36
10652;BME280;5374;42.742;23.266;2022-11-12T14:53:17;96818.13;;;10.53;78.73
10652;BME280;5374;42.742;23.266;2022-11-12T14:56:15;96810.81;;;10.49;78.35
10652;BME280;5374;42.742;23.266;2022-11-12T14:59:09;96823.84;;;10.57;78.67
10652;BME280;5374;42.742;23.266;2022-11-12T15:02:05;96813.47;;;10.49;78.85
10652;BME280;5374;42.742;23.266;2022-11-12T15:04:58;96818.53;;;10.57;79.36
10652;BME280;5374;42.742;23.266;2022-11-12T15:07:53;96814.03;;;10.57;79.34
10652;BME280;5374;42.742;23.266;2022-11-12T15:10:43;96817.75;;;10.50;80.27